sensor_id;sensor_type;location;lat;lon;timestamp;pressure;altitude;pressure_sealevel;temperature;humidity
967;BME280;56108;48.730;9.304;2022-09-09T00:01:20;97356.47;;;13.47;88.60
967;BME280;56108;48.730;9.304;2022-09-09T00:04:21;97364.59;;;13.46;87.76
967;BME280;56108;48.730;9.304;2022-09-09T00:07:43;97361.81;;;13.47;87.32
967;BME280;56108;48.730;9.304;2022-09-09T00:10:04;97356.19;;;13.50;86.99
967;BME280;56108;48.730;9.304;2022-09-09T00:12:20;97352.94;;;13.47;87.42
967;BME280;56108;48.730;9.304;2022-09-09T00:14:39;97345.31;;;13.42;87.14
967;BME280;56108;48.730;9.304;2022-09-09T00:17:06;97349.53;;;13.45;86.91
967;BME280;56108;48.730;9.304;2022-09-09T00:19:34;97349.53;;;13.45;87.45
967;BME280;56108;48.730;9.304;2022-09-09T00:21:56;97348.09;;;13.41;87.74
967;BME280;56108;48.730;9.304;2022-09-09T00:24:37;97341.59;;;13.34;88.08
967;BME280;56108;48.730;9.304;2022-09-09T00:27:04;97340.13;;;13.29;88.56
967;BME280;56108;48.730;9.304;2022-09-09T00:29:28;97333.34;;;13.25;88.90
967;BME280;56108;48.730;9.304;2022-09-09T00:32:09;97337.16;;;13.23;89.12
967;BME280;56108;48.730;9.304;2022-09-09T00:34:29;97327.75;;;13.28;89.63
967;BME280;56108;48.730;9.304;2022-09-09T00:36:38;97338.44;;;13.49;88.39
967;BME280;56108;48.730;9.304;2022-09-09T00:38:54;97343.66;;;13.51;88.05
967;BME280;56108;48.730;9.304;2022-09-09T00:44:25;97339.09;;;13.63;88.14
967;BME280;56108;48.730;9.304;2022-09-09T00:47:12;97340.06;;;13.62;88.52
967;BME280;56108;48.730;9.304;2022-09-09T00:49:52;97342.88;;;13.60;87.84
967;BME280;56108;48.730;9.304;2022-09-09T00:52:40;97348.06;;;13.82;87.54
967;BME280;56108;48.730;9.304;2022-09-09T00:55:27;97355.28;;;13.92;86.52
967;BME280;56108;48.730;9.304;2022-09-09T00:57:45;97347.31;;;14.01;85.53
967;BME280;56108;48.730;9.304;2022-09-09T01:00:24;97358.03;;;14.01;85.04
967;BME280;56108;48.730;9.304;2022-09-09T01:02:39;97361.41;;;14.03;86.12
967;BME280;56108;48.730;9.304;2022-09-09T01:05:01;97354.91;;;13.96;86.10
967;BME280;56108;48.730;9.304;2022-09-09T01:07:16;97357.78;;;14.04;85.09
967;BME280;56108;48.730;9.304;2022-09-09T01:09:50;97352.66;;;14.01;85.38
967;BME280;56108;48.730;9.304;2022-09-09T01:17:48;97348.72;;;13.96;85.94
967;BME280;56108;48.730;9.304;2022-09-09T01:20:14;97350.66;;;13.94;86.62
967;BME280;56108;48.730;9.304;2022-09-09T01:23:04;97349.03;;;13.81;85.90
967;BME280;56108;48.730;9.304;2022-09-09T01:28:09;97341.63;;;13.64;87.45
967;BME280;56108;48.730;9.304;2022-09-09T01:30:20;97344.00;;;13.57;88.60
967;BME280;56108;48.730;9.304;2022-09-09T01:32:41;97349.00;;;13.51;89.70
967;BME280;56108;48.730;9.304;2022-09-09T01:34:51;97358.66;;;13.63;89.22
967;BME280;56108;48.730;9.304;2022-09-09T01:37:23;97358.84;;;13.71;88.88
967;BME280;56108;48.730;9.304;2022-09-09T01:39:51;97359.16;;;13.57;89.69
967;BME280;56108;48.730;9.304;2022-09-09T01:41:59;97364.34;;;13.49;90.14
967;BME280;56108;48.730;9.304;2022-09-09T01:44:38;97362.44;;;13.40;90.78
967;BME280;56108;48.730;9.304;2022-09-09T01:47:07;97357.38;;;13.37;91.43
967;BME280;56108;48.730;9.304;2022-09-09T01:49:39;97345.66;;;13.17;92.64
967;BME280;56108;48.730;9.304;2022-09-09T01:52:03;97347.00;;;13.11;92.45
967;BME280;56108;48.730;9.304;2022-09-09T01:54:31;97341.16;;;13.17;91.62
967;BME280;56108;48.730;9.304;2022-09-09T01:57:03;97338.34;;;13.19;90.75
967;BME280;56108;48.730;9.304;2022-09-09T02:00:13;97351.66;;;13.30;88.71
967;BME280;56108;48.730;9.304;2022-09-09T02:03:12;97350.59;;;13.32;88.47
967;BME280;56108;48.730;9.304;2022-09-09T02:06:00;97356.16;;;13.29;88.77
967;BME280;56108;48.730;9.304;2022-09-09T02:08:20;97351.66;;;13.30;90.17
967;BME280;56108;48.730;9.304;2022-09-09T02:11:08;97348.81;;;13.22;90.15
967;BME280;56108;48.730;9.304;2022-09-09T02:13:52;97354.03;;;13.12;91.34
967;BME280;56108;48.730;9.304;2022-09-09T02:16:16;97355.97;;;13.10;91.94
967;BME280;56108;48.730;9.304;2022-09-09T02:18:55;97352.34;;;13.11;92.27
967;BME280;56108;48.730;9.304;2022-09-09T02:21:16;97354.56;;;13.06;92.18
967;BME280;56108;48.730;9.304;2022-09-09T02:23:25;97355.28;;;13.08;92.17
967;BME280;56108;48.730;9.304;2022-09-09T02:25:34;97356.50;;;13.04;92.58
967;BME280;56108;48.730;9.304;2022-09-09T02:27:53;97349.84;;;12.98;93.26
967;BME280;56108;48.730;9.304;2022-09-09T02:30:04;97345.72;;;12.94;93.68
967;BME280;56108;48.730;9.304;2022-09-09T02:32:20;97335.81;;;12.85;94.37
967;BME280;56108;48.730;9.304;2022-09-09T02:34:41;97339.00;;;12.68;96.05
967;BME280;56108;48.730;9.304;2022-09-09T02:37:23;97342.72;;;12.44;98.28
967;BME280;56108;48.730;9.304;2022-09-09T02:39:52;97340.31;;;12.30;100.00
967;BME280;56108;48.730;9.304;2022-09-09T02:42:17;97335.63;;;12.22;100.00
967;BME280;56108;48.730;9.304;2022-09-09T02:44:28;97339.00;;;12.13;100.00
967;BME280;56108;48.730;9.304;2022-09-09T02:47:09;97338.31;;;12.11;100.00
967;BME280;56108;48.730;9.304;2022-09-09T02:49:28;97330.28;;;12.11;100.00
967;BME280;56108;48.730;9.304;2022-09-09T02:51:46;97332.56;;;12.16;100.00
967;BME280;56108;48.730;9.304;2022-09-09T02:54:08;97339.16;;;12.12;100.00
967;BME280;56108;48.730;9.304;2022-09-09T02:56:20;97337.91;;;12.05;100.00
967;BME280;56108;48.730;9.304;2022-09-09T02:58:33;97337.56;;;11.98;100.00
967;BME280;56108;48.730;9.304;2022-09-09T03:00:44;97339.97;;;11.90;100.00
967;BME280;56108;48.730;9.304;2022-09-09T03:02:53;97327.88;;;11.97;100.00
967;BME280;56108;48.730;9.304;2022-09-09T03:05:01;97331.59;;;12.06;100.00
967;BME280;56108;48.730;9.304;2022-09-09T03:07:12;97334.19;;;11.96;100.00
967;BME280;56108;48.730;9.304;2022-09-09T03:09:22;97334.41;;;11.93;100.00
967;BME280;56108;48.730;9.304;2022-09-09T03:11:31;97329.22;;;11.91;100.00
967;BME280;56108;48.730;9.304;2022-09-09T03:13:40;97327.75;;;11.98;100.00
967;BME280;56108;48.730;9.304;2022-09-09T03:15:48;97331.50;;;11.96;100.00
967;BME280;56108;48.730;9.304;2022-09-09T03:17:58;97329.19;;;12.02;100.00
967;BME280;56108;48.730;9.304;2022-09-09T03:20:07;97330.28;;;12.11;100.00
967;BME280;56108;48.730;9.304;2022-09-09T03:22:18;97331.13;;;12.23;100.00
967;BME280;56108;48.730;9.304;2022-09-09T03:24:27;97339.34;;;12.31;100.00
967;BME280;56108;48.730;9.304;2022-09-09T03:26:37;97340.81;;;12.35;100.00
967;BME280;56108;48.730;9.304;2022-09-09T03:28:58;97346.25;;;12.45;100.00
967;BME280;56108;48.730;9.304;2022-09-09T03:31:08;97346.13;;;12.46;100.00
967;BME280;56108;48.730;9.304;2022-09-09T03:33:18;97352.06;;;12.50;100.00
967;BME280;56108;48.730;9.304;2022-09-09T03:35:26;97344.91;;;12.50;100.00
967;BME280;56108;48.730;9.304;2022-09-09T03:37:37;97346.59;;;12.51;99.96
967;BME280;56108;48.730;9.304;2022-09-09T03:39:48;97347.22;;;12.44;100.00
967;BME280;56108;48.730;9.304;2022-09-09T03:41:56;97343.59;;;12.34;100.00
967;BME280;56108;48.730;9.304;2022-09-09T03:44:04;97336.69;;;12.31;100.00
967;BME280;56108;48.730;9.304;2022-09-09T03:46:16;97334.38;;;12.26;100.00
967;BME280;56108;48.730;9.304;2022-09-09T03:48:25;97333.91;;;12.21;100.00
967;BME280;56108;48.730;9.304;2022-09-09T03:50:34;97332.09;;;12.22;100.00
967;BME280;56108;48.730;9.304;2022-09-09T03:52:44;97331.84;;;12.25;100.00
967;BME280;56108;48.730;9.304;2022-09-09T03:54:58;97333.66;;;12.24;100.00
967;BME280;56108;48.730;9.304;2022-09-09T03:57:06;97328.31;;;12.24;100.00
967;BME280;56108;48.730;9.304;2022-09-09T03:59:16;97339.72;;;12.26;100.00
967;BME280;56108;48.730;9.304;2022-09-09T04:01:24;97331.34;;;12.31;100.00
967;BME280;56108;48.730;9.304;2022-09-09T04:03:32;97324.91;;;12.34;100.00
967;BME280;56108;48.730;9.304;2022-09-09T04:05:40;97338.59;;;12.40;99.80
967;BME280;56108;48.730;9.304;2022-09-09T04:07:50;97333.97;;;12.42;99.15
967;BME280;56108;48.730;9.304;2022-09-09T04:09:59;97342.88;;;12.43;99.08
967;BME280;56108;48.730;9.304;2022-09-09T04:12:08;97342.97;;;12.41;99.39
967;BME280;56108;48.730;9.304;2022-09-09T04:14:18;97351.59;;;12.45;99.61
967;BME280;56108;48.730;9.304;2022-09-09T04:16:27;97357.28;;;12.40;99.39
967;BME280;56108;48.730;9.304;2022-09-09T04:18:35;97357.06;;;12.43;99.42
967;BME280;56108;48.730;9.304;2022-09-09T04:20:46;97355.25;;;12.33;99.41
967;BME280;56108;48.730;9.304;2022-09-09T04:22:59;97360.94;;;12.28;99.57
967;BME280;56108;48.730;9.304;2022-09-09T04:25:08;97353.53;;;12.20;99.76
967;BME280;56108;48.730;9.304;2022-09-09T04:27:16;97354.31;;;12.11;100.00
967;BME280;56108;48.730;9.304;2022-09-09T04:29:24;97352.72;;;12.09;100.00
967;BME280;56108;48.730;9.304;2022-09-09T04:31:33;97350.28;;;12.06;100.00
967;BME280;56108;48.730;9.304;2022-09-09T04:33:42;97341.44;;;12.05;100.00
967;BME280;56108;48.730;9.304;2022-09-09T04:35:51;97344.22;;;12.04;100.00
967;BME280;56108;48.730;9.304;2022-09-09T04:38:05;97338.88;;;12.04;100.00
967;BME280;56108;48.730;9.304;2022-09-09T04:40:14;97338.41;;;12.10;100.00
967;BME280;56108;48.730;9.304;2022-09-09T04:42:23;97344.34;;;12.13;100.00
967;BME280;56108;48.730;9.304;2022-09-09T04:44:32;97343.00;;;12.19;100.00
967;BME280;56108;48.730;9.304;2022-09-09T04:46:42;97344.19;;;12.26;100.00
967;BME280;56108;48.730;9.304;2022-09-09T04:49:33;97352.78;;;12.41;100.00
967;BME280;56108;48.730;9.304;2022-09-09T04:52:30;97358.47;;;12.59;99.42
967;BME280;56108;48.730;9.304;2022-09-09T04:54:53;97352.75;;;12.63;98.45
967;BME280;56108;48.730;9.304;2022-09-09T04:57:01;97352.00;;;12.72;97.76
967;BME280;56108;48.730;9.304;2022-09-09T04:59:11;97360.38;;;12.79;96.75
967;BME280;56108;48.730;9.304;2022-09-09T05:01:24;97351.47;;;12.90;95.57
967;BME280;56108;48.730;9.304;2022-09-09T05:03:39;97365.75;;;13.00;94.62
967;BME280;56108;48.730;9.304;2022-09-09T05:05:49;97362.50;;;12.96;94.52
967;BME280;56108;48.730;9.304;2022-09-09T05:08:01;97362.50;;;12.96;94.22
967;BME280;56108;48.730;9.304;2022-09-09T05:10:24;97357.38;;;12.93;94.64
967;BME280;56108;48.730;9.304;2022-09-09T05:12:32;97366.38;;;12.92;94.97
967;BME280;56108;48.730;9.304;2022-09-09T05:14:40;97378.56;;;12.85;95.45
967;BME280;56108;48.730;9.304;2022-09-09T05:16:49;97377.09;;;12.81;95.88
967;BME280;56108;48.730;9.304;2022-09-09T05:18:58;97379.63;;;12.83;96.00
967;BME280;56108;48.730;9.304;2022-09-09T05:21:21;97385.13;;;12.81;96.32
967;BME280;56108;48.730;9.304;2022-09-09T05:23:29;97377.72;;;12.85;96.80
967;BME280;56108;48.730;9.304;2022-09-09T05:25:41;97371.97;;;12.89;96.64
967;BME280;56108;48.730;9.304;2022-09-09T05:27:51;97373.41;;;12.93;96.77
967;BME280;56108;48.730;9.304;2022-09-09T05:29:59;97375.34;;;13.02;96.77
967;BME280;56108;48.730;9.304;2022-09-09T05:32:07;97368.13;;;13.14;95.88
967;BME280;56108;48.730;9.304;2022-09-09T05:34:21;97384.41;;;13.22;95.21
967;BME280;56108;48.730;9.304;2022-09-09T05:36:29;97381.22;;;13.28;94.52
967;BME280;56108;48.730;9.304;2022-09-09T05:38:37;97378.16;;;13.33;94.16
967;BME280;56108;48.730;9.304;2022-09-09T05:40:50;97384.59;;;13.51;93.25
967;BME280;56108;48.730;9.304;2022-09-09T05:43:00;97378.63;;;13.59;92.68
967;BME280;56108;48.730;9.304;2022-09-09T05:45:10;97374.72;;;13.63;92.67
967;BME280;56108;48.730;9.304;2022-09-09T05:47:18;97390.78;;;13.73;92.61
967;BME280;56108;48.730;9.304;2022-09-09T05:49:26;97399.47;;;13.86;91.99
967;BME280;56108;48.730;9.304;2022-09-09T05:52:02;97399.44;;;14.07;91.67
967;BME280;56108;48.730;9.304;2022-09-09T05:54:53;97404.41;;;14.12;91.29
967;BME280;56108;48.730;9.304;2022-09-09T05:57:12;97400.34;;;14.17;90.94
967;BME280;56108;48.730;9.304;2022-09-09T05:59:21;97402.47;;;14.23;91.30
967;BME280;56108;48.730;9.304;2022-09-09T06:01:36;97404.47;;;14.21;91.21
967;BME280;56108;48.730;9.304;2022-09-09T06:03:49;97403.47;;;14.22;91.49
967;BME280;56108;48.730;9.304;2022-09-09T06:06:00;97396.16;;;14.24;91.11
967;BME280;56108;48.730;9.304;2022-09-09T06:08:10;97408.56;;;14.25;91.08
967;BME280;56108;48.730;9.304;2022-09-09T06:10:18;97403.72;;;14.19;90.27
967;BME280;56108;48.730;9.304;2022-09-09T06:12:29;97411.44;;;14.13;90.47
967;BME280;56108;48.730;9.304;2022-09-09T06:14:39;97403.50;;;14.01;90.95
967;BME280;56108;48.730;9.304;2022-09-09T06:16:51;97395.38;;;13.82;92.32
967;BME280;56108;48.730;9.304;2022-09-09T06:19:02;97401.44;;;13.84;93.33
967;BME280;56108;48.730;9.304;2022-09-09T06:21:15;97402.53;;;13.81;93.13
967;BME280;56108;48.730;9.304;2022-09-09T06:23:27;97396.94;;;13.84;92.96
967;BME280;56108;48.730;9.304;2022-09-09T06:25:35;97396.22;;;13.82;92.83
967;BME280;56108;48.730;9.304;2022-09-09T06:27:51;97399.34;;;13.88;92.23
967;BME280;56108;48.730;9.304;2022-09-09T06:29:59;97405.28;;;13.91;91.83
967;BME280;56108;48.730;9.304;2022-09-09T06:32:08;97401.13;;;14.08;91.22
967;BME280;56108;48.730;9.304;2022-09-09T06:34:16;97400.22;;;14.19;90.10
967;BME280;56108;48.730;9.304;2022-09-09T06:36:28;97402.53;;;14.33;88.78
967;BME280;56108;48.730;9.304;2022-09-09T06:38:37;97403.34;;;14.54;88.33
967;BME280;56108;48.730;9.304;2022-09-09T06:40:51;97408.19;;;14.70;86.99
967;BME280;56108;48.730;9.304;2022-09-09T06:43:03;97405.56;;;14.90;86.40
967;BME280;56108;48.730;9.304;2022-09-09T06:45:17;97413.84;;;14.77;86.17
967;BME280;56108;48.730;9.304;2022-09-09T06:47:31;97412.75;;;14.89;86.11
967;BME280;56108;48.730;9.304;2022-09-09T06:49:40;97418.97;;;15.19;85.28
967;BME280;56108;48.730;9.304;2022-09-09T06:51:52;97414.91;;;15.53;84.48
967;BME280;56108;48.730;9.304;2022-09-09T06:54:01;97422.69;;;15.56;83.10
967;BME280;56108;48.730;9.304;2022-09-09T06:56:22;97424.38;;;15.38;83.03
967;BME280;56108;48.730;9.304;2022-09-09T06:58:34;97421.00;;;15.36;83.45
967;BME280;56108;48.730;9.304;2022-09-09T07:00:42;97423.91;;;15.13;83.15
967;BME280;56108;48.730;9.304;2022-09-09T07:02:50;97417.28;;;14.98;85.37
967;BME280;56108;48.730;9.304;2022-09-09T07:04:59;97418.00;;;15.10;84.83
967;BME280;56108;48.730;9.304;2022-09-09T07:07:08;97425.78;;;15.23;83.85
967;BME280;56108;48.730;9.304;2022-09-09T07:09:21;97422.13;;;15.43;83.78
967;BME280;56108;48.730;9.304;2022-09-09T07:11:32;97418.72;;;15.60;83.41
967;BME280;56108;48.730;9.304;2022-09-09T07:13:43;97422.25;;;15.71;82.28
967;BME280;56108;48.730;9.304;2022-09-09T07:15:52;97415.34;;;15.78;81.60
967;BME280;56108;48.730;9.304;2022-09-09T07:18:01;97413.28;;;16.18;80.22
967;BME280;56108;48.730;9.304;2022-09-09T07:20:17;97416.09;;;16.54;77.89
967;BME280;56108;48.730;9.304;2022-09-09T07:23:38;97421.03;;;16.59;77.74
967;BME280;56108;48.730;9.304;2022-09-09T07:26:10;97415.91;;;16.38;78.52
967;BME280;56108;48.730;9.304;2022-09-09T07:28:18;97420.22;;;16.49;78.19
967;BME280;56108;48.730;9.304;2022-09-09T07:30:29;97411.63;;;16.82;78.39
967;BME280;56108;48.730;9.304;2022-09-09T07:32:37;97415.56;;;17.06;76.61
967;BME280;56108;48.730;9.304;2022-09-09T07:34:45;97415.41;;;16.89;76.93
967;BME280;56108;48.730;9.304;2022-09-09T07:36:55;97407.38;;;16.80;78.01
967;BME280;56108;48.730;9.304;2022-09-09T07:39:04;97410.94;;;16.43;78.36
967;BME280;56108;48.730;9.304;2022-09-09T07:41:16;97407.16;;;16.36;79.04
967;BME280;56108;48.730;9.304;2022-09-09T07:43:27;97410.25;;;16.41;80.06
967;BME280;56108;48.730;9.304;2022-09-09T07:45:39;97425.56;;;16.58;78.93
967;BME280;56108;48.730;9.304;2022-09-09T07:47:47;97423.75;;;16.49;79.91
967;BME280;56108;48.730;9.304;2022-09-09T07:49:55;97423.53;;;16.70;79.09
967;BME280;56108;48.730;9.304;2022-09-09T07:52:07;97422.63;;;16.89;79.02
967;BME280;56108;48.730;9.304;2022-09-09T07:54:23;97422.22;;;16.84;78.95
967;BME280;56108;48.730;9.304;2022-09-09T07:56:32;97427.31;;;16.87;79.23
967;BME280;56108;48.730;9.304;2022-09-09T07:58:41;97435.78;;;16.92;78.21
967;BME280;56108;48.730;9.304;2022-09-09T08:00:52;97438.09;;;17.22;78.69
967;BME280;56108;48.730;9.304;2022-09-09T08:03:00;97448.50;;;17.71;76.40
967;BME280;56108;48.730;9.304;2022-09-09T08:05:08;97447.72;;;17.43;75.88
967;BME280;56108;48.730;9.304;2022-09-09T08:07:18;97441.28;;;17.54;77.07
967;BME280;56108;48.730;9.304;2022-09-09T08:09:31;97444.97;;;17.70;76.51
967;BME280;56108;48.730;9.304;2022-09-09T08:11:45;97440.59;;;17.87;75.64
967;BME280;56108;48.730;9.304;2022-09-09T08:13:55;97446.13;;;18.30;73.86
967;BME280;56108;48.730;9.304;2022-09-09T08:16:11;97450.56;;;18.65;72.25
967;BME280;56108;48.730;9.304;2022-09-09T08:18:20;97447.84;;;18.99;71.54
967;BME280;56108;48.730;9.304;2022-09-09T08:20:28;97451.53;;;19.48;69.77
967;BME280;56108;48.730;9.304;2022-09-09T08:22:36;97447.72;;;19.84;68.75
967;BME280;56108;48.730;9.304;2022-09-09T08:24:46;97446.38;;;19.63;67.03
967;BME280;56108;48.730;9.304;2022-09-09T08:26:55;97447.38;;;19.87;66.50
967;BME280;56108;48.730;9.304;2022-09-09T08:29:06;97443.88;;;19.94;66.72
967;BME280;56108;48.730;9.304;2022-09-09T08:31:19;97449.25;;;19.70;66.79
967;BME280;56108;48.730;9.304;2022-09-09T08:33:27;97455.00;;;19.75;67.21
967;BME280;56108;48.730;9.304;2022-09-09T08:35:35;97443.81;;;19.62;67.74
967;BME280;56108;48.730;9.304;2022-09-09T08:37:44;97453.94;;;19.68;65.99
967;BME280;56108;48.730;9.304;2022-09-09T08:39:55;97448.50;;;19.43;66.59
967;BME280;56108;48.730;9.304;2022-09-09T08:42:19;97455.59;;;19.44;67.28
967;BME280;56108;48.730;9.304;2022-09-09T08:44:41;97453.91;;;19.43;67.45
967;BME280;56108;48.730;9.304;2022-09-09T08:47:06;97459.28;;;19.51;65.81
967;BME280;56108;48.730;9.304;2022-09-09T08:49:31;97454.38;;;19.47;66.41
967;BME280;56108;48.730;9.304;2022-09-09T08:51:48;97446.38;;;19.63;67.24
967;BME280;56108;48.730;9.304;2022-09-09T08:53:58;97444.88;;;19.69;67.38
967;BME280;56108;48.730;9.304;2022-09-09T08:56:11;97452.47;;;19.90;65.80
967;BME280;56108;48.730;9.304;2022-09-09T08:58:27;97447.06;;;20.06;65.09
967;BME280;56108;48.730;9.304;2022-09-09T09:00:48;97454.31;;;20.05;64.38
967;BME280;56108;48.730;9.304;2022-09-09T09:03:06;97456.00;;;20.47;63.51
967;BME280;56108;48.730;9.304;2022-09-09T09:05:24;97455.63;;;20.50;62.78
967;BME280;56108;48.730;9.304;2022-09-09T09:07:45;97445.31;;;20.62;62.88
967;BME280;56108;48.730;9.304;2022-09-09T09:10:05;97451.06;;;20.59;62.44
967;BME280;56108;48.730;9.304;2022-09-09T09:12:41;97454.72;;;21.22;60.98
967;BME280;56108;48.730;9.304;2022-09-09T09:14:55;97452.34;;;21.58;58.68
967;BME280;56108;48.730;9.304;2022-09-09T09:17:06;97458.25;;;21.84;56.93
967;BME280;56108;48.730;9.304;2022-09-09T09:19:20;97453.09;;;21.44;56.86
967;BME280;56108;48.730;9.304;2022-09-09T09:21:37;97447.03;;;21.65;57.65
967;BME280;56108;48.730;9.304;2022-09-09T09:23:54;97461.06;;;21.68;56.83
967;BME280;56108;48.730;9.304;2022-09-09T09:26:07;97463.41;;;22.70;55.72
967;BME280;56108;48.730;9.304;2022-09-09T09:28:20;97477.75;;;23.59;50.92
967;BME280;56108;48.730;9.304;2022-09-09T09:30:39;97479.41;;;25.23;47.32
967;BME280;56108;48.730;9.304;2022-09-09T09:32:53;97494.63;;;26.40;43.69
967;BME280;56108;48.730;9.304;2022-09-09T09:35:10;97515.59;;;26.19;43.00
967;BME280;56108;48.730;9.304;2022-09-09T09:37:26;97510.84;;;24.91;45.10
967;BME280;56108;48.730;9.304;2022-09-09T09:39:36;97509.88;;;23.19;46.57
967;BME280;56108;48.730;9.304;2022-09-09T09:42:10;97526.75;;;22.24;45.61
967;BME280;56108;48.730;9.304;2022-09-09T09:44:26;97514.44;;;22.36;45.12
967;BME280;56108;48.730;9.304;2022-09-09T09:46:43;97512.25;;;22.32;46.37
967;BME280;56108;48.730;9.304;2022-09-09T09:48:59;97505.41;;;24.20;42.40
967;BME280;56108;48.730;9.304;2022-09-09T09:51:13;97522.56;;;25.67;38.01
967;BME280;56108;48.730;9.304;2022-09-09T09:53:25;97537.50;;;26.86;36.46
967;BME280;56108;48.730;9.304;2022-09-09T09:55:35;97532.31;;;27.62;33.96
967;BME280;56108;48.730;9.304;2022-09-09T09:57:43;97530.31;;;27.89;33.44
967;BME280;56108;48.730;9.304;2022-09-09T10:00:00;97522.00;;;28.97;33.29
967;BME280;56108;48.730;9.304;2022-09-09T10:02:21;97515.47;;;28.92;33.97
967;BME280;56108;48.730;9.304;2022-09-09T10:04:38;97503.09;;;29.14;34.10
967;BME280;56108;48.730;9.304;2022-09-09T10:06:49;97483.69;;;29.34;34.05
967;BME280;56108;48.730;9.304;2022-09-09T10:08:59;97477.94;;;29.72;34.03
967;BME280;56108;48.730;9.304;2022-09-09T10:11:25;97478.94;;;29.78;31.56
967;BME280;56108;48.730;9.304;2022-09-09T10:13:42;97483.91;;;30.29;31.91
967;BME280;56108;48.730;9.304;2022-09-09T10:16:04;97479.66;;;30.57;31.58
967;BME280;56108;48.730;9.304;2022-09-09T10:18:25;97475.66;;;30.18;32.77
967;BME280;56108;48.730;9.304;2022-09-09T10:20:45;97466.63;;;28.89;34.31
967;BME280;56108;48.730;9.304;2022-09-09T10:23:07;97471.25;;;28.45;33.96
967;BME280;56108;48.730;9.304;2022-09-09T10:25:32;97462.81;;;28.46;33.50
967;BME280;56108;48.730;9.304;2022-09-09T10:27:50;97439.59;;;26.96;36.13
967;BME280;56108;48.730;9.304;2022-09-09T10:30:12;97426.84;;;26.70;39.07
967;BME280;56108;48.730;9.304;2022-09-09T10:32:41;97434.78;;;25.85;37.12
967;BME280;56108;48.730;9.304;2022-09-09T10:34:56;97425.59;;;26.59;38.04
967;BME280;56108;48.730;9.304;2022-09-09T10:37:15;97423.19;;;27.54;37.86
967;BME280;56108;48.730;9.304;2022-09-09T10:39:36;97430.72;;;27.14;38.16
967;BME280;56108;48.730;9.304;2022-09-09T10:41:54;97420.53;;;27.41;39.75
967;BME280;56108;48.730;9.304;2022-09-09T10:44:19;97413.84;;;26.59;39.72
967;BME280;56108;48.730;9.304;2022-09-09T10:46:42;97417.28;;;27.12;38.83
967;BME280;56108;48.730;9.304;2022-09-09T10:49:00;97421.47;;;27.21;37.65
967;BME280;56108;48.730;9.304;2022-09-09T10:51:23;97407.59;;;24.55;43.17
967;BME280;56108;48.730;9.304;2022-09-09T10:53:45;97400.44;;;25.30;42.10
967;BME280;56108;48.730;9.304;2022-09-09T10:56:02;97398.22;;;25.53;42.41
967;BME280;56108;48.730;9.304;2022-09-09T10:58:19;97384.38;;;24.03;45.27
967;BME280;56108;48.730;9.304;2022-09-09T11:00:39;97401.66;;;23.37;45.36
967;BME280;56108;48.730;9.304;2022-09-09T11:02:50;97396.94;;;23.25;48.29
967;BME280;56108;48.730;9.304;2022-09-09T11:05:03;97390.09;;;23.29;50.31
967;BME280;56108;48.730;9.304;2022-09-09T11:07:25;97386.03;;;23.39;48.49
967;BME280;56108;48.730;9.304;2022-09-09T11:09:39;97381.19;;;23.56;48.55
967;BME280;56108;48.730;9.304;2022-09-09T11:11:53;97376.69;;;23.85;47.13
967;BME280;56108;48.730;9.304;2022-09-09T11:14:05;97370.69;;;24.17;45.92
967;BME280;56108;48.730;9.304;2022-09-09T11:16:20;97368.25;;;23.37;50.45
967;BME280;56108;48.730;9.304;2022-09-09T11:18:32;97376.16;;;23.75;49.36
967;BME280;56108;48.730;9.304;2022-09-09T11:20:45;97371.41;;;23.77;48.53
967;BME280;56108;48.730;9.304;2022-09-09T11:23:00;97385.78;;;23.71;48.27
967;BME280;56108;48.730;9.304;2022-09-09T11:25:15;97400.47;;;23.40;49.74
967;BME280;56108;48.730;9.304;2022-09-09T11:27:29;97383.34;;;23.39;50.73
967;BME280;56108;48.730;9.304;2022-09-09T11:32:58;97387.06;;;22.28;53.69
967;BME280;56108;48.730;9.304;2022-09-09T11:35:24;97403.16;;;21.69;53.34
967;BME280;56108;48.730;9.304;2022-09-09T11:38:04;97412.84;;;20.46;58.49
967;BME280;56108;48.730;9.304;2022-09-09T11:40:19;97416.81;;;19.78;66.25
967;BME280;56108;48.730;9.304;2022-09-09T11:42:32;97423.56;;;18.91;68.73
967;BME280;56108;48.730;9.304;2022-09-09T11:44:43;97433.69;;;18.37;71.54
967;BME280;56108;48.730;9.304;2022-09-09T11:46:51;97423.94;;;18.10;74.55
967;BME280;56108;48.730;9.304;2022-09-09T11:49:03;97414.25;;;18.17;75.93
967;BME280;56108;48.730;9.304;2022-09-09T11:51:25;97416.13;;;18.24;74.70
967;BME280;56108;48.730;9.304;2022-09-09T11:53:35;97405.63;;;18.73;75.48
967;BME280;56108;48.730;9.304;2022-09-09T11:56:10;97410.41;;;19.87;76.77
967;BME280;56108;48.730;9.304;2022-09-09T11:58:22;97411.41;;;20.19;71.37
967;BME280;56108;48.730;9.304;2022-09-09T12:00:33;97410.16;;;20.62;70.44
967;BME280;56108;48.730;9.304;2022-09-09T12:02:48;97410.03;;;20.95;69.65
967;BME280;56108;48.730;9.304;2022-09-09T12:05:00;97410.56;;;21.21;69.45
967;BME280;56108;48.730;9.304;2022-09-09T12:07:25;97415.03;;;21.06;67.99
967;BME280;56108;48.730;9.304;2022-09-09T12:09:46;97415.13;;;20.90;65.55
967;BME280;56108;48.730;9.304;2022-09-09T12:14:38;97423.13;;;20.67;61.15
967;BME280;56108;48.730;9.304;2022-09-09T12:16:46;97420.97;;;20.46;60.82
967;BME280;56108;48.730;9.304;2022-09-09T12:19:03;97423.84;;;20.44;61.99
967;BME280;56108;48.730;9.304;2022-09-09T12:21:17;97428.13;;;19.98;58.98
967;BME280;56108;48.730;9.304;2022-09-09T12:23:38;97427.09;;;20.31;60.53
967;BME280;56108;48.730;9.304;2022-09-09T12:25:59;97417.81;;;20.18;60.57
967;BME280;56108;48.730;9.304;2022-09-09T12:28:11;97422.28;;;20.66;61.57
967;BME280;56108;48.730;9.304;2022-09-09T12:30:29;97427.94;;;20.96;54.21
967;BME280;56108;48.730;9.304;2022-09-09T12:32:39;97420.53;;;21.21;55.66
967;BME280;56108;48.730;9.304;2022-09-09T12:34:52;97401.81;;;21.65;58.20
967;BME280;56108;48.730;9.304;2022-09-09T12:37:05;97409.56;;;21.45;55.06
967;BME280;56108;48.730;9.304;2022-09-09T12:39:27;97410.88;;;21.26;54.28
967;BME280;56108;48.730;9.304;2022-09-09T12:41:37;97417.66;;;21.30;56.03